sensor_id;sensor_type;location;lat;lon;timestamp;P1;durP1;ratioP1;P2;durP2;ratioP2
36061;SDS011;22123;52.412;20.970;2023-03-19T00:00:48;9.68;;;2.42;;
36061;SDS011;22123;52.412;20.970;2023-03-19T00:03:14;6.28;;;2.58;;
36061;SDS011;22123;52.412;20.970;2023-03-19T00:05:40;1.52;;;1.33;;
36061;SDS011;22123;52.412;20.970;2023-03-19T00:08:06;5.30;;;2.60;;
36061;SDS011;22123;52.412;20.970;2023-03-19T00:10:32;3.67;;;1.92;;
36061;SDS011;22123;52.412;20.970;2023-03-19T00:12:57;9.48;;;1.95;;
36061;SDS011;22123;52.412;20.970;2023-03-19T00:15:23;10.63;;;3.35;;
36061;SDS011;22123;52.412;20.970;2023-03-19T00:17:49;11.93;;;2.55;;
36061;SDS011;22123;52.412;20.970;2023-03-19T00:20:15;5.32;;;3.28;;
36061;SDS011;22123;52.412;20.970;2023-03-19T00:22:41;4.82;;;1.55;;
36061;SDS011;22123;52.412;20.970;2023-03-19T00:25:07;5.28;;;3.05;;
36061;SDS011;22123;52.412;20.970;2023-03-19T00:27:33;4.07;;;1.88;;
36061;SDS011;22123;52.412;20.970;2023-03-19T00:30:00;9.63;;;4.15;;
36061;SDS011;22123;52.412;20.970;2023-03-19T00:32:26;9.43;;;2.55;;
36061;SDS011;22123;52.412;20.970;2023-03-19T00:34:52;4.40;;;2.15;;
36061;SDS011;22123;52.412;20.970;2023-03-19T00:37:17;6.80;;;3.15;;
36061;SDS011;22123;52.412;20.970;2023-03-19T00:39:43;3.95;;;2.00;;
36061;SDS011;22123;52.412;20.970;2023-03-19T00:42:09;4.57;;;1.73;;
36061;SDS011;22123;52.412;20.970;2023-03-19T00:44:35;4.60;;;2.42;;
36061;SDS011;22123;52.412;20.970;2023-03-19T00:47:01;11.48;;;3.58;;
36061;SDS011;22123;52.412;20.970;2023-03-19T00:49:27;8.45;;;2.65;;
36061;SDS011;22123;52.412;20.970;2023-03-19T00:51:53;3.47;;;2.20;;
36061;SDS011;22123;52.412;20.970;2023-03-19T00:54:19;4.60;;;2.15;;
36061;SDS011;22123;52.412;20.970;2023-03-19T00:56:45;5.53;;;2.42;;
36061;SDS011;22123;52.412;20.970;2023-03-19T00:59:11;10.60;;;3.13;;
36061;SDS011;22123;52.412;20.970;2023-03-19T01:01:36;4.75;;;2.33;;
36061;SDS011;22123;52.412;20.970;2023-03-19T01:04:02;3.58;;;1.38;;
36061;SDS011;22123;52.412;20.970;2023-03-19T01:06:28;6.53;;;2.47;;
36061;SDS011;22123;52.412;20.970;2023-03-19T01:08:54;8.77;;;2.60;;
36061;SDS011;22123;52.412;20.970;2023-03-19T01:11:20;9.25;;;2.97;;
36061;SDS011;22123;52.412;20.970;2023-03-19T01:13:46;5.53;;;1.75;;
36061;SDS011;22123;52.412;20.970;2023-03-19T01:16:12;14.77;;;3.22;;
36061;SDS011;22123;52.412;20.970;2023-03-19T01:18:38;4.75;;;3.08;;
36061;SDS011;22123;52.412;20.970;2023-03-19T01:21:04;6.10;;;2.45;;
36061;SDS011;22123;52.412;20.970;2023-03-19T01:23:30;12.40;;;2.88;;
36061;SDS011;22123;52.412;20.970;2023-03-19T01:25:56;8.15;;;3.45;;
36061;SDS011;22123;52.412;20.970;2023-03-19T01:28:22;10.35;;;3.92;;
36061;SDS011;22123;52.412;20.970;2023-03-19T01:30:48;8.65;;;3.28;;
36061;SDS011;22123;52.412;20.970;2023-03-19T01:33:14;7.68;;;3.28;;
36061;SDS011;22123;52.412;20.970;2023-03-19T01:35:40;5.45;;;2.67;;
36061;SDS011;22123;52.412;20.970;2023-03-19T01:38:07;8.20;;;2.80;;
36061;SDS011;22123;52.412;20.970;2023-03-19T01:40:33;7.72;;;2.53;;
36061;SDS011;22123;52.412;20.970;2023-03-19T01:45:31;5.50;;;2.55;;
36061;SDS011;22123;52.412;20.970;2023-03-19T01:47:59;6.38;;;2.05;;
36061;SDS011;22123;52.412;20.970;2023-03-19T01:50:27;5.20;;;2.97;;
36061;SDS011;22123;52.412;20.970;2023-03-19T01:53:01;4.47;;;2.50;;
36061;SDS011;22123;52.412;20.970;2023-03-19T01:55:27;4.45;;;1.75;;
36061;SDS011;22123;52.412;20.970;2023-03-19T01:57:53;8.07;;;3.83;;
36061;SDS011;22123;52.412;20.970;2023-03-19T02:00:20;1.85;;;1.70;;
36061;SDS011;22123;52.412;20.970;2023-03-19T02:02:46;4.90;;;2.42;;
36061;SDS011;22123;52.412;20.970;2023-03-19T02:05:17;5.38;;;2.63;;
36061;SDS011;22123;52.412;20.970;2023-03-19T02:07:44;5.28;;;2.47;;
36061;SDS011;22123;52.412;20.970;2023-03-19T02:10:11;8.10;;;3.15;;
36061;SDS011;22123;52.412;20.970;2023-03-19T02:12:39;4.97;;;2.47;;
36061;SDS011;22123;52.412;20.970;2023-03-19T02:15:05;3.03;;;1.63;;
36061;SDS011;22123;52.412;20.970;2023-03-19T02:17:32;8.23;;;2.03;;
36061;SDS011;22123;52.412;20.970;2023-03-19T02:22:55;2.53;;;1.67;;
36061;SDS011;22123;52.412;20.970;2023-03-19T02:25:27;5.38;;;2.58;;
36061;SDS011;22123;52.412;20.970;2023-03-19T02:27:59;3.28;;;2.38;;
36061;SDS011;22123;52.412;20.970;2023-03-19T02:30:27;5.85;;;2.83;;
36061;SDS011;22123;52.412;20.970;2023-03-19T02:32:56;5.05;;;3.20;;
36061;SDS011;22123;52.412;20.970;2023-03-19T02:35:22;12.80;;;3.40;;
36061;SDS011;22123;52.412;20.970;2023-03-19T02:37:48;5.60;;;2.72;;
36061;SDS011;22123;52.412;20.970;2023-03-19T02:40:16;5.63;;;1.98;;
36061;SDS011;22123;52.412;20.970;2023-03-19T02:42:46;7.05;;;2.58;;
36061;SDS011;22123;52.412;20.970;2023-03-19T02:45:12;7.07;;;2.30;;
36061;SDS011;22123;52.412;20.970;2023-03-19T02:47:39;13.95;;;2.90;;
36061;SDS011;22123;52.412;20.970;2023-03-19T02:50:05;3.97;;;1.92;;
36061;SDS011;22123;52.412;20.970;2023-03-19T02:52:31;5.28;;;2.88;;
36061;SDS011;22123;52.412;20.970;2023-03-19T02:54:57;4.15;;;2.45;;
36061;SDS011;22123;52.412;20.970;2023-03-19T02:57:23;3.90;;;2.47;;
36061;SDS011;22123;52.412;20.970;2023-03-19T02:59:49;3.92;;;2.08;;
36061;SDS011;22123;52.412;20.970;2023-03-19T03:02:15;9.73;;;4.35;;
36061;SDS011;22123;52.412;20.970;2023-03-19T03:04:40;2.80;;;1.85;;
36061;SDS011;22123;52.412;20.970;2023-03-19T03:07:06;3.38;;;2.30;;
36061;SDS011;22123;52.412;20.970;2023-03-19T03:09:33;4.50;;;2.50;;
36061;SDS011;22123;52.412;20.970;2023-03-19T03:11:59;8.20;;;1.92;;
36061;SDS011;22123;52.412;20.970;2023-03-19T03:14:25;5.47;;;2.00;;
36061;SDS011;22123;52.412;20.970;2023-03-19T03:16:51;5.75;;;2.40;;
36061;SDS011;22123;52.412;20.970;2023-03-19T03:19:17;3.97;;;2.33;;
36061;SDS011;22123;52.412;20.970;2023-03-19T03:21:43;12.18;;;2.47;;
36061;SDS011;22123;52.412;20.970;2023-03-19T03:24:09;9.30;;;3.28;;
36061;SDS011;22123;52.412;20.970;2023-03-19T03:26:35;5.88;;;3.17;;
36061;SDS011;22123;52.412;20.970;2023-03-19T03:29:01;3.92;;;1.65;;
36061;SDS011;22123;52.412;20.970;2023-03-19T03:31:27;10.85;;;3.28;;
36061;SDS011;22123;52.412;20.970;2023-03-19T03:33:53;4.95;;;2.47;;
36061;SDS011;22123;52.412;20.970;2023-03-19T03:36:18;5.18;;;2.15;;
36061;SDS011;22123;52.412;20.970;2023-03-19T03:38:44;6.68;;;3.88;;
36061;SDS011;22123;52.412;20.970;2023-03-19T03:41:10;3.20;;;2.90;;
36061;SDS011;22123;52.412;20.970;2023-03-19T03:43:36;6.72;;;2.40;;
36061;SDS011;22123;52.412;20.970;2023-03-19T03:46:02;1.15;;;1.05;;
36061;SDS011;22123;52.412;20.970;2023-03-19T03:48:28;5.03;;;2.65;;
36061;SDS011;22123;52.412;20.970;2023-03-19T03:50:54;3.70;;;2.20;;
36061;SDS011;22123;52.412;20.970;2023-03-19T03:53:20;2.92;;;2.42;;
36061;SDS011;22123;52.412;20.970;2023-03-19T03:55:46;2.25;;;1.40;;
36061;SDS011;22123;52.412;20.970;2023-03-19T03:58:11;3.88;;;1.58;;
36061;SDS011;22123;52.412;20.970;2023-03-19T04:00:37;6.30;;;2.33;;
36061;SDS011;22123;52.412;20.970;2023-03-19T04:03:04;2.67;;;2.17;;
36061;SDS011;22123;52.412;20.970;2023-03-19T04:05:30;6.97;;;2.70;;
36061;SDS011;22123;52.412;20.970;2023-03-19T04:07:55;6.70;;;3.40;;
36061;SDS011;22123;52.412;20.970;2023-03-19T04:10:21;6.78;;;3.10;;
36061;SDS011;22123;52.412;20.970;2023-03-19T04:12:47;11.20;;;2.55;;
36061;SDS011;22123;52.412;20.970;2023-03-19T04:15:13;7.25;;;2.13;;
36061;SDS011;22123;52.412;20.970;2023-03-19T04:17:39;4.13;;;2.17;;
36061;SDS011;22123;52.412;20.970;2023-03-19T04:20:05;5.10;;;1.58;;
36061;SDS011;22123;52.412;20.970;2023-03-19T04:22:32;4.07;;;2.78;;
36061;SDS011;22123;52.412;20.970;2023-03-19T04:24:58;2.78;;;2.13;;
36061;SDS011;22123;52.412;20.970;2023-03-19T04:27:24;9.75;;;3.72;;
36061;SDS011;22123;52.412;20.970;2023-03-19T04:29:50;5.43;;;2.72;;
36061;SDS011;22123;52.412;20.970;2023-03-19T04:32:16;1.13;;;1.00;;
36061;SDS011;22123;52.412;20.970;2023-03-19T04:34:41;8.23;;;2.72;;
36061;SDS011;22123;52.412;20.970;2023-03-19T04:37:07;5.97;;;3.08;;
36061;SDS011;22123;52.412;20.970;2023-03-19T04:39:33;4.60;;;2.33;;
36061;SDS011;22123;52.412;20.970;2023-03-19T04:41:59;1.30;;;1.05;;
36061;SDS011;22123;52.412;20.970;2023-03-19T04:44:25;1.90;;;1.77;;
36061;SDS011;22123;52.412;20.970;2023-03-19T04:46:51;9.30;;;3.30;;
36061;SDS011;22123;52.412;20.970;2023-03-19T04:49:17;2.83;;;1.88;;
36061;SDS011;22123;52.412;20.970;2023-03-19T04:51:43;2.88;;;1.80;;
36061;SDS011;22123;52.412;20.970;2023-03-19T04:54:09;18.75;;;2.83;;
36061;SDS011;22123;52.412;20.970;2023-03-19T04:56:34;4.90;;;3.15;;
36061;SDS011;22123;52.412;20.970;2023-03-19T04:59:00;2.05;;;1.30;;
36061;SDS011;22123;52.412;20.970;2023-03-19T05:01:26;6.43;;;1.42;;
36061;SDS011;22123;52.412;20.970;2023-03-19T05:03:52;3.08;;;1.90;;
36061;SDS011;22123;52.412;20.970;2023-03-19T05:06:18;4.53;;;2.25;;
36061;SDS011;22123;52.412;20.970;2023-03-19T05:08:44;5.07;;;2.60;;
36061;SDS011;22123;52.412;20.970;2023-03-19T05:11:10;8.00;;;3.20;;
36061;SDS011;22123;52.412;20.970;2023-03-19T05:13:36;5.68;;;2.42;;
36061;SDS011;22123;52.412;20.970;2023-03-19T05:16:02;6.70;;;4.35;;
36061;SDS011;22123;52.412;20.970;2023-03-19T05:18:28;5.00;;;2.78;;
36061;SDS011;22123;52.412;20.970;2023-03-19T05:20:54;3.80;;;2.47;;
36061;SDS011;22123;52.412;20.970;2023-03-19T05:23:20;12.13;;;2.80;;
36061;SDS011;22123;52.412;20.970;2023-03-19T05:25:46;8.00;;;3.78;;
36061;SDS011;22123;52.412;20.970;2023-03-19T05:28:12;3.40;;;2.30;;
36061;SDS011;22123;52.412;20.970;2023-03-19T05:30:38;2.00;;;1.77;;
36061;SDS011;22123;52.412;20.970;2023-03-19T05:33:05;2.65;;;1.67;;
36061;SDS011;22123;52.412;20.970;2023-03-19T05:35:31;4.72;;;2.20;;
36061;SDS011;22123;52.412;20.970;2023-03-19T05:37:57;5.60;;;2.05;;
36061;SDS011;22123;52.412;20.970;2023-03-19T05:40:23;2.25;;;1.90;;
36061;SDS011;22123;52.412;20.970;2023-03-19T05:42:49;4.90;;;2.30;;
36061;SDS011;22123;52.412;20.970;2023-03-19T05:45:15;5.22;;;3.05;;
36061;SDS011;22123;52.412;20.970;2023-03-19T05:47:41;2.03;;;1.60;;
36061;SDS011;22123;52.412;20.970;2023-03-19T05:50:08;4.30;;;1.77;;
36061;SDS011;22123;52.412;20.970;2023-03-19T05:52:34;4.47;;;3.20;;
36061;SDS011;22123;52.412;20.970;2023-03-19T05:55:00;9.88;;;2.92;;
36061;SDS011;22123;52.412;20.970;2023-03-19T05:57:26;6.72;;;2.67;;
36061;SDS011;22123;52.412;20.970;2023-03-19T05:59:52;6.35;;;3.28;;
36061;SDS011;22123;52.412;20.970;2023-03-19T06:02:18;9.65;;;3.20;;
36061;SDS011;22123;52.412;20.970;2023-03-19T06:04:44;6.65;;;2.60;;
36061;SDS011;22123;52.412;20.970;2023-03-19T06:07:10;4.63;;;2.67;;
36061;SDS011;22123;52.412;20.970;2023-03-19T06:09:36;9.52;;;3.70;;
36061;SDS011;22123;52.412;20.970;2023-03-19T06:12:02;11.85;;;3.75;;
36061;SDS011;22123;52.412;20.970;2023-03-19T06:14:28;4.40;;;2.05;;
36061;SDS011;22123;52.412;20.970;2023-03-19T06:16:53;5.82;;;2.65;;
36061;SDS011;22123;52.412;20.970;2023-03-19T06:19:19;3.85;;;2.38;;
36061;SDS011;22123;52.412;20.970;2023-03-19T06:21:45;6.00;;;2.17;;
36061;SDS011;22123;52.412;20.970;2023-03-19T06:24:11;6.10;;;3.50;;
36061;SDS011;22123;52.412;20.970;2023-03-19T06:26:37;7.40;;;2.75;;
36061;SDS011;22123;52.412;20.970;2023-03-19T06:29:03;12.05;;;2.90;;
36061;SDS011;22123;52.412;20.970;2023-03-19T06:31:29;10.45;;;3.25;;
36061;SDS011;22123;52.412;20.970;2023-03-19T06:33:55;13.57;;;3.75;;
36061;SDS011;22123;52.412;20.970;2023-03-19T06:36:21;7.55;;;3.60;;
36061;SDS011;22123;52.412;20.970;2023-03-19T06:38:46;8.52;;;4.07;;
36061;SDS011;22123;52.412;20.970;2023-03-19T06:41:12;7.93;;;3.88;;
36061;SDS011;22123;52.412;20.970;2023-03-19T06:43:38;6.38;;;3.45;;
36061;SDS011;22123;52.412;20.970;2023-03-19T06:46:04;7.53;;;3.78;;
36061;SDS011;22123;52.412;20.970;2023-03-19T06:48:30;5.60;;;3.30;;
36061;SDS011;22123;52.412;20.970;2023-03-19T06:50:56;5.43;;;3.33;;
36061;SDS011;22123;52.412;20.970;2023-03-19T06:53:22;8.25;;;4.10;;
36061;SDS011;22123;52.412;20.970;2023-03-19T06:55:48;8.75;;;3.10;;
36061;SDS011;22123;52.412;20.970;2023-03-19T06:58:14;2.08;;;1.63;;
36061;SDS011;22123;52.412;20.970;2023-03-19T07:00:39;5.68;;;2.42;;
36061;SDS011;22123;52.412;20.970;2023-03-19T07:03:05;2.90;;;2.30;;
36061;SDS011;22123;52.412;20.970;2023-03-19T07:05:31;10.00;;;3.03;;
36061;SDS011;22123;52.412;20.970;2023-03-19T07:07:57;9.05;;;2.03;;
36061;SDS011;22123;52.412;20.970;2023-03-19T07:10:23;10.85;;;3.05;;
36061;SDS011;22123;52.412;20.970;2023-03-19T07:12:49;8.10;;;2.58;;
36061;SDS011;22123;52.412;20.970;2023-03-19T07:15:15;4.78;;;2.38;;
36061;SDS011;22123;52.412;20.970;2023-03-19T07:17:41;9.68;;;3.40;;
36061;SDS011;22123;52.412;20.970;2023-03-19T07:20:07;7.40;;;4.63;;
36061;SDS011;22123;52.412;20.970;2023-03-19T07:22:33;6.55;;;1.95;;
36061;SDS011;22123;52.412;20.970;2023-03-19T07:24:59;5.63;;;2.05;;
36061;SDS011;22123;52.412;20.970;2023-03-19T07:27:25;6.75;;;2.90;;
36061;SDS011;22123;52.412;20.970;2023-03-19T07:29:52;9.85;;;2.92;;
36061;SDS011;22123;52.412;20.970;2023-03-19T07:32:18;5.03;;;3.03;;
36061;SDS011;22123;52.412;20.970;2023-03-19T07:34:44;9.02;;;2.92;;
36061;SDS011;22123;52.412;20.970;2023-03-19T07:37:10;4.85;;;2.67;;
36061;SDS011;22123;52.412;20.970;2023-03-19T07:39:36;7.15;;;2.80;;
36061;SDS011;22123;52.412;20.970;2023-03-19T07:42:02;6.80;;;2.85;;
36061;SDS011;22123;52.412;20.970;2023-03-19T07:44:28;6.78;;;2.28;;
36061;SDS011;22123;52.412;20.970;2023-03-19T07:46:54;5.63;;;2.83;;
36061;SDS011;22123;52.412;20.970;2023-03-19T07:49:20;7.38;;;2.63;;
36061;SDS011;22123;52.412;20.970;2023-03-19T07:51:47;4.93;;;2.63;;
36061;SDS011;22123;52.412;20.970;2023-03-19T07:54:13;10.75;;;4.55;;
36061;SDS011;22123;52.412;20.970;2023-03-19T07:56:39;4.70;;;2.50;;
36061;SDS011;22123;52.412;20.970;2023-03-19T07:59:04;4.57;;;3.42;;
36061;SDS011;22123;52.412;20.970;2023-03-19T08:01:31;12.32;;;4.55;;
36061;SDS011;22123;52.412;20.970;2023-03-19T08:03:57;7.25;;;3.10;;
36061;SDS011;22123;52.412;20.970;2023-03-19T08:06:23;8.52;;;2.92;;
36061;SDS011;22123;52.412;20.970;2023-03-19T08:08:48;8.05;;;2.63;;
36061;SDS011;22123;52.412;20.970;2023-03-19T08:11:14;8.43;;;3.50;;
36061;SDS011;22123;52.412;20.970;2023-03-19T08:13:41;5.95;;;3.30;;
36061;SDS011;22123;52.412;20.970;2023-03-19T08:16:07;7.97;;;3.33;;
36061;SDS011;22123;52.412;20.970;2023-03-19T08:18:33;6.55;;;2.58;;
36061;SDS011;22123;52.412;20.970;2023-03-19T08:20:59;6.35;;;2.88;;
36061;SDS011;22123;52.412;20.970;2023-03-19T08:23:25;8.55;;;2.70;;
36061;SDS011;22123;52.412;20.970;2023-03-19T08:25:51;8.45;;;2.72;;
36061;SDS011;22123;52.412;20.970;2023-03-19T08:28:18;5.38;;;2.63;;
36061;SDS011;22123;52.412;20.970;2023-03-19T08:30:44;9.98;;;3.33;;
36061;SDS011;22123;52.412;20.970;2023-03-19T08:33:10;12.45;;;3.47;;
36061;SDS011;22123;52.412;20.970;2023-03-19T08:35:36;9.05;;;3.20;;
36061;SDS011;22123;52.412;20.970;2023-03-19T08:38:02;7.45;;;2.38;;
36061;SDS011;22123;52.412;20.970;2023-03-19T08:40:28;10.02;;;4.18;;
36061;SDS011;22123;52.412;20.970;2023-03-19T08:42:54;8.38;;;2.88;;
36061;SDS011;22123;52.412;20.970;2023-03-19T08:45:20;6.00;;;2.60;;
36061;SDS011;22123;52.412;20.970;2023-03-19T08:47:47;7.40;;;3.15;;
36061;SDS011;22123;52.412;20.970;2023-03-19T08:50:14;9.05;;;2.83;;
36061;SDS011;22123;52.412;20.970;2023-03-19T08:52:41;8.07;;;2.67;;
36061;SDS011;22123;52.412;20.970;2023-03-19T08:55:07;5.00;;;2.08;;
36061;SDS011;22123;52.412;20.970;2023-03-19T08:57:33;10.10;;;3.50;;
36061;SDS011;22123;52.412;20.970;2023-03-19T09:00:00;9.27;;;2.83;;
36061;SDS011;22123;52.412;20.970;2023-03-19T09:02:26;6.57;;;2.75;;
36061;SDS011;22123;52.412;20.970;2023-03-19T09:04:52;6.03;;;2.88;;
36061;SDS011;22123;52.412;20.970;2023-03-19T09:07:18;7.22;;;2.97;;
36061;SDS011;22123;52.412;20.970;2023-03-19T09:09:44;7.65;;;3.55;;
36061;SDS011;22123;52.412;20.970;2023-03-19T09:12:12;6.53;;;2.85;;
36061;SDS011;22123;52.412;20.970;2023-03-19T09:14:39;6.93;;;3.53;;
36061;SDS011;22123;52.412;20.970;2023-03-19T09:17:05;5.05;;;2.78;;
36061;SDS011;22123;52.412;20.970;2023-03-19T09:19:33;4.82;;;2.78;;
36061;SDS011;22123;52.412;20.970;2023-03-19T09:21:59;6.45;;;3.08;;
36061;SDS011;22123;52.412;20.970;2023-03-19T09:24:25;5.57;;;3.17;;
36061;SDS011;22123;52.412;20.970;2023-03-19T09:26:51;5.65;;;2.95;;
36061;SDS011;22123;52.412;20.970;2023-03-19T09:29:17;8.30;;;2.72;;
36061;SDS011;22123;52.412;20.970;2023-03-19T09:31:43;8.48;;;3.42;;
36061;SDS011;22123;52.412;20.970;2023-03-19T09:34:09;3.92;;;2.17;;
36061;SDS011;22123;52.412;20.970;2023-03-19T09:36:35;4.00;;;2.58;;
36061;SDS011;22123;52.412;20.970;2023-03-19T09:39:02;6.75;;;2.08;;
36061;SDS011;22123;52.412;20.970;2023-03-19T09:54:58;9.55;;;3.65;;
36061;SDS011;22123;52.412;20.970;2023-03-19T09:59:53;7.38;;;2.85;;
36061;SDS011;22123;52.412;20.970;2023-03-19T10:11:17;8.43;;;3.72;;
36061;SDS011;22123;52.412;20.970;2023-03-19T10:14:00;8.02;;;3.78;;
36061;SDS011;22123;52.412;20.970;2023-03-19T10:16:47;8.10;;;3.42;;
36061;SDS011;22123;52.412;20.970;2023-03-19T10:19:15;6.80;;;3.47;;
36061;SDS011;22123;52.412;20.970;2023-03-19T10:21:49;7.05;;;3.45;;
36061;SDS011;22123;52.412;20.970;2023-03-19T10:24:21;8.20;;;3.45;;
36061;SDS011;22123;52.412;20.970;2023-03-19T10:26:49;7.18;;;3.50;;
36061;SDS011;22123;52.412;20.970;2023-03-19T10:29:23;8.80;;;3.97;;
36061;SDS011;22123;52.412;20.970;2023-03-19T10:31:51;8.88;;;3.95;;
36061;SDS011;22123;52.412;20.970;2023-03-19T10:36:56;11.98;;;4.38;;
36061;SDS011;22123;52.412;20.970;2023-03-19T10:39:42;12.80;;;4.00;;
36061;SDS011;22123;52.412;20.970;2023-03-19T10:44:55;8.25;;;3.95;;
36061;SDS011;22123;52.412;20.970;2023-03-19T10:47:26;5.63;;;3.50;;
36061;SDS011;22123;52.412;20.970;2023-03-19T10:49:52;9.75;;;3.83;;
36061;SDS011;22123;52.412;20.970;2023-03-19T10:52:24;10.18;;;3.63;;
36061;SDS011;22123;52.412;20.970;2023-03-19T10:54:54;8.63;;;3.70;;
36061;SDS011;22123;52.412;20.970;2023-03-19T10:57:26;9.10;;;4.20;;
36061;SDS011;22123;52.412;20.970;2023-03-19T10:59:53;5.22;;;2.50;;
36061;SDS011;22123;52.412;20.970;2023-03-19T11:02:20;6.55;;;3.22;;
36061;SDS011;22123;52.412;20.970;2023-03-19T11:05:00;6.32;;;3.10;;
36061;SDS011;22123;52.412;20.970;2023-03-19T11:10:11;6.20;;;2.70;;
36061;SDS011;22123;52.412;20.970;2023-03-19T11:12:39;5.55;;;3.25;;
36061;SDS011;22123;52.412;20.970;2023-03-19T11:15:13;7.05;;;3.20;;
36061;SDS011;22123;52.412;20.970;2023-03-19T11:22:52;4.57;;;2.97;;
36061;SDS011;22123;52.412;20.970;2023-03-19T11:25:26;8.40;;;3.95;;
36061;SDS011;22123;52.412;20.970;2023-03-19T11:28:01;8.68;;;2.78;;
36061;SDS011;22123;52.412;20.970;2023-03-19T11:31:05;5.22;;;2.78;;
36061;SDS011;22123;52.412;20.970;2023-03-19T11:33:31;7.28;;;2.90;;
36061;SDS011;22123;52.412;20.970;2023-03-19T11:41:48;5.80;;;2.75;;
36061;SDS011;22123;52.412;20.970;2023-03-19T11:50:48;7.80;;;2.95;;
36061;SDS011;22123;52.412;20.970;2023-03-19T12:12:55;6.50;;;2.92;;
36061;SDS011;22123;52.412;20.970;2023-03-19T12:21:10;10.85;;;3.22;;
36061;SDS011;22123;52.412;20.970;2023-03-19T12:34:25;8.90;;;2.88;;
36061;SDS011;22123;52.412;20.970;2023-03-19T12:37:15;5.63;;;2.22;;
36061;SDS011;22123;52.412;20.970;2023-03-19T12:42:41;6.25;;;3.00;;
36061;SDS011;22123;52.412;20.970;2023-03-19T12:45:14;5.20;;;1.92;;
36061;SDS011;22123;52.412;20.970;2023-03-19T12:47:43;12.07;;;3.75;;
36061;SDS011;22123;52.412;20.970;2023-03-19T12:50:12;3.05;;;1.95;;
36061;SDS011;22123;52.412;20.970;2023-03-19T12:52:42;7.68;;;2.42;;
36061;SDS011;22123;52.412;20.970;2023-03-19T12:58:01;5.75;;;2.20;;
36061;SDS011;22123;52.412;20.970;2023-03-19T13:00:52;6.15;;;2.70;;
36061;SDS011;22123;52.412;20.970;2023-03-19T13:12:10;5.28;;;2.40;;
36061;SDS011;22123;52.412;20.970;2023-03-19T13:14:58;5.70;;;2.55;;
36061;SDS011;22123;52.412;20.970;2023-03-19T13:20:30;4.82;;;2.10;;
36061;SDS011;22123;52.412;20.970;2023-03-19T13:23:11;8.82;;;2.88;;
36061;SDS011;22123;52.412;20.970;2023-03-19T13:25:48;8.05;;;3.17;;
36061;SDS011;22123;52.412;20.970;2023-03-19T13:28:26;5.80;;;2.70;;
36061;SDS011;22123;52.412;20.970;2023-03-19T13:30:58;6.75;;;3.20;;
36061;SDS011;22123;52.412;20.970;2023-03-19T13:33:34;5.65;;;2.42;;
36061;SDS011;22123;52.412;20.970;2023-03-19T13:36:03;8.13;;;3.47;;
36061;SDS011;22123;52.412;20.970;2023-03-19T13:38:38;8.40;;;2.03;;
36061;SDS011;22123;52.412;20.970;2023-03-19T13:42:17;6.43;;;2.58;;
36061;SDS011;22123;52.412;20.970;2023-03-19T13:44:28;5.82;;;2.78;;
36061;SDS011;22123;52.412;20.970;2023-03-19T13:50:02;5.05;;;2.83;;
36061;SDS011;22123;52.412;20.970;2023-03-19T13:55:27;8.98;;;3.13;;
36061;SDS011;22123;52.412;20.970;2023-03-19T13:58:12;5.43;;;2.15;;
36061;SDS011;22123;52.412;20.970;2023-03-19T14:00:54;5.55;;;2.88;;
36061;SDS011;22123;52.412;20.970;2023-03-19T14:03:23;6.53;;;2.58;;
36061;SDS011;22123;52.412;20.970;2023-03-19T14:05:49;4.13;;;2.13;;
36061;SDS011;22123;52.412;20.970;2023-03-19T14:08:21;4.85;;;2.17;;
36061;SDS011;22123;52.412;20.970;2023-03-19T14:10:57;5.50;;;2.13;;
36061;SDS011;22123;52.412;20.970;2023-03-19T14:16:04;5.13;;;2.63;;
36061;SDS011;22123;52.412;20.970;2023-03-19T14:18:36;3.17;;;1.52;;
36061;SDS011;22123;52.412;20.970;2023-03-19T14:21:07;3.22;;;1.85;;
36061;SDS011;22123;52.412;20.970;2023-03-19T14:23:41;3.63;;;2.40;;
36061;SDS011;22123;52.412;20.970;2023-03-19T14:31:27;4.32;;;2.38;;
36061;SDS011;22123;52.412;20.970;2023-03-19T14:34:05;4.97;;;2.10;;
36061;SDS011;22123;52.412;20.970;2023-03-19T14:36:53;4.60;;;1.60;;
36061;SDS011;22123;52.412;20.970;2023-03-19T14:39:32;3.08;;;1.85;;
36061;SDS011;22123;52.412;20.970;2023-03-19T14:42:04;3.70;;;2.13;;
36061;SDS011;22123;52.412;20.970;2023-03-19T14:56:24;5.40;;;2.50;;
36061;SDS011;22123;52.412;20.970;2023-03-19T14:58:55;4.00;;;1.77;;
36061;SDS011;22123;52.412;20.970;2023-03-19T15:01:23;4.05;;;1.70;;
36061;SDS011;22123;52.412;20.970;2023-03-19T15:03:53;1.95;;;1.60;;
36061;SDS011;22123;52.412;20.970;2023-03-19T15:06:29;4.28;;;1.98;;
36061;SDS011;22123;52.412;20.970;2023-03-19T15:08:58;10.07;;;2.22;;
36061;SDS011;22123;52.412;20.970;2023-03-19T15:19:15;2.22;;;1.20;;
36061;SDS011;22123;52.412;20.970;2023-03-19T15:21:46;2.85;;;1.40;;
36061;SDS011;22123;52.412;20.970;2023-03-19T15:24:14;5.27;;;1.97;;
36061;SDS011;22123;52.412;20.970;2023-03-19T15:26:41;3.63;;;2.05;;
36061;SDS011;22123;52.412;20.970;2023-03-19T15:29:08;2.92;;;1.58;;
36061;SDS011;22123;52.412;20.970;2023-03-19T15:31:40;6.18;;;2.30;;
36061;SDS011;22123;52.412;20.970;2023-03-19T15:34:26;3.53;;;1.55;;
36061;SDS011;22123;52.412;20.970;2023-03-19T15:37:14;26.42;;;6.18;;
36061;SDS011;22123;52.412;20.970;2023-03-19T15:39:41;11.93;;;4.40;;
36061;SDS011;22123;52.412;20.970;2023-03-19T15:42:13;8.15;;;4.05;;
36061;SDS011;22123;52.412;20.970;2023-03-19T15:47:38;6.88;;;3.53;;
36061;SDS011;22123;52.412;20.970;2023-03-19T15:52:40;7.93;;;3.15;;
36061;SDS011;22123;52.412;20.970;2023-03-19T15:55:11;67.20;;;15.30;;
36061;SDS011;22123;52.412;20.970;2023-03-19T15:57:38;61.50;;;16.70;;
36061;SDS011;22123;52.412;20.970;2023-03-19T16:00:07;136.93;;;28.75;;
36061;SDS011;22123;52.412;20.970;2023-03-19T16:02:38;90.50;;;21.98;;
36061;SDS011;22123;52.412;20.970;2023-03-19T16:05:06;98.32;;;25.58;;
36061;SDS011;22123;52.412;20.970;2023-03-19T16:07:40;94.40;;;23.98;;
36061;SDS011;22123;52.412;20.970;2023-03-19T16:13:00;123.45;;;25.48;;
36061;SDS011;22123;52.412;20.970;2023-03-19T16:15:27;117.20;;;30.60;;
36061;SDS011;22123;52.412;20.970;2023-03-19T16:20:41;72.93;;;17.88;;
36061;SDS011;22123;52.412;20.970;2023-03-19T16:23:08;48.42;;;13.05;;
36061;SDS011;22123;52.412;20.970;2023-03-19T16:25:42;45.60;;;13.27;;
36061;SDS011;22123;52.412;20.970;2023-03-19T16:28:19;32.20;;;8.93;;
36061;SDS011;22123;52.412;20.970;2023-03-19T16:30:46;33.35;;;8.30;;
36061;SDS011;22123;52.412;20.970;2023-03-19T16:33:13;41.00;;;8.27;;
36061;SDS011;22123;52.412;20.970;2023-03-19T16:35:39;31.33;;;9.95;;
36061;SDS011;22123;52.412;20.970;2023-03-19T16:38:11;16.63;;;7.28;;
36061;SDS011;22123;52.412;20.970;2023-03-19T16:41:35;17.85;;;5.82;;
36061;SDS011;22123;52.412;20.970;2023-03-19T16:43:47;15.75;;;5.28;;
36061;SDS011;22123;52.412;20.970;2023-03-19T16:46:13;13.50;;;3.45;;
36061;SDS011;22123;52.412;20.970;2023-03-19T16:48:39;10.18;;;5.03;;
36061;SDS011;22123;52.412;20.970;2023-03-19T16:51:23;10.88;;;3.60;;
36061;SDS011;22123;52.412;20.970;2023-03-19T16:53:49;9.90;;;4.40;;
36061;SDS011;22123;52.412;20.970;2023-03-19T16:56:15;7.50;;;4.05;;
36061;SDS011;22123;52.412;20.970;2023-03-19T16:58:44;7.25;;;3.28;;
36061;SDS011;22123;52.412;20.970;2023-03-19T17:01:18;10.77;;;3.83;;
36061;SDS011;22123;52.412;20.970;2023-03-19T17:03:48;7.65;;;2.80;;
36061;SDS011;22123;52.412;20.970;2023-03-19T17:06:15;5.90;;;2.50;;
36061;SDS011;22123;52.412;20.970;2023-03-19T17:08:42;5.15;;;2.28;;
36061;SDS011;22123;52.412;20.970;2023-03-19T17:11:15;7.35;;;3.13;;